createdAt,value
2023-01-13T00:00:51.007Z,99.99
2023-01-13T00:01:50.994Z,99.99
2023-01-13T00:02:50.993Z,99.99
2023-01-13T00:03:50.979Z,99.99
2023-01-13T00:04:51.002Z,99.99
2023-01-13T00:05:50.958Z,99.99
2023-01-13T00:06:50.928Z,99.99
2023-01-13T00:07:50.919Z,99.99
2023-01-13T00:08:50.907Z,99.99
2023-01-13T00:09:50.893Z,99.99
2023-01-13T00:10:50.872Z,99.99
2023-01-13T00:11:50.865Z,99.99
2023-01-13T00:12:50.853Z,99.99
2023-01-13T00:13:50.907Z,99.99
2023-01-13T00:14:50.825Z,99.99
2023-01-13T00:15:50.877Z,99.99
2023-01-13T00:16:50.795Z,99.99
2023-01-13T00:17:50.803Z,99.99
2023-01-13T00:18:50.793Z,99.99
2023-01-13T00:19:50.765Z,99.99
2023-01-13T00:20:50.754Z,99.99
2023-01-13T00:21:50.744Z,99.99
2023-01-13T00:22:50.765Z,99.99
2023-01-13T00:23:50.692Z,99.99
2023-01-13T00:24:50.694Z,99.99
2023-01-13T00:25:50.675Z,99.54
2023-01-13T00:26:50.662Z,99.65
2023-01-13T00:27:50.644Z,99.75
2023-01-13T00:28:50.636Z,99.90
2023-01-13T00:29:50.653Z,99.99
2023-01-13T00:30:50.634Z,99.99
2023-01-13T00:31:50.607Z,99.99
2023-01-13T00:32:50.596Z,99.99
2023-01-13T00:33:50.583Z,99.99
2023-01-13T00:34:50.567Z,99.65
2023-01-13T00:35:50.575Z,99.65
2023-01-13T00:36:50.561Z,99.34
2023-01-13T00:37:50.518Z,99.24
2023-01-13T00:38:50.519Z,99.13
2023-01-13T00:39:50.493Z,99.13
2023-01-13T00:40:50.483Z,99.03
2023-01-13T00:41:50.477Z,99.03
2023-01-13T00:42:50.463Z,98.93
2023-01-13T00:43:50.435Z,99.03
2023-01-13T00:44:50.445Z,98.83
2023-01-13T00:45:50.429Z,98.72
2023-01-13T00:46:50.469Z,98.62
2023-01-13T00:47:50.428Z,98.42
2023-01-13T00:48:50.375Z,98.21
2023-01-13T00:49:50.380Z,98.11
2023-01-13T00:50:50.354Z,97.91
2023-01-13T00:51:50.343Z,97.91
2023-01-13T00:52:50.321Z,97.91
2023-01-13T00:53:50.337Z,97.80
2023-01-13T00:54:50.305Z,97.91
2023-01-13T00:55:50.306Z,98.11
2023-01-13T00:56:50.275Z,98.21
2023-01-13T00:57:50.278Z,98.32
2023-01-13T00:58:50.256Z,98.11
2023-01-13T00:59:50.245Z,98.11
2023-01-13T01:00:50.258Z,98.21
2023-01-13T01:01:50.307Z,98.21
2023-01-13T01:02:50.193Z,98.21
2023-01-13T01:03:50.177Z,98.11
2023-01-13T01:04:50.178Z,98.21
2023-01-13T01:05:50.158Z,98.00
2023-01-13T01:06:50.159Z,97.80
2023-01-13T01:07:50.140Z,97.49
2023-01-13T01:08:50.105Z,97.39
2023-01-13T01:09:50.119Z,97.24
2023-01-13T01:10:50.099Z,97.04
2023-01-13T01:11:50.096Z,97.19
2023-01-13T01:12:50.080Z,97.29
2023-01-13T01:13:50.067Z,97.49
2023-01-13T01:14:50.053Z,97.60
2023-01-13T01:15:50.121Z,97.39
2023-01-13T01:16:50.029Z,97.04
2023-01-13T01:17:50.007Z,97.04
2023-01-13T01:18:49.986Z,97.04
2023-01-13T01:19:49.986Z,97.19
2023-01-13T01:20:49.989Z,97.19
2023-01-13T01:21:49.963Z,97.19
2023-01-13T01:22:49.947Z,97.19
2023-01-13T01:23:49.939Z,97.29
2023-01-13T01:24:49.921Z,97.39
2023-01-13T01:25:49.896Z,97.29
2023-01-13T01:26:49.889Z,97.49
2023-01-13T01:27:49.877Z,97.49
2023-01-13T01:28:49.857Z,97.29
2023-01-13T01:29:49.855Z,97.39
2023-01-13T01:30:49.834Z,97.19
2023-01-13T01:31:49.824Z,97.39
2023-01-13T01:32:49.806Z,97.49
2023-01-13T01:33:49.785Z,97.08
2023-01-13T01:34:49.787Z,96.88
2023-01-13T01:35:49.808Z,96.53
2023-01-13T01:36:49.757Z,96.42
2023-01-13T01:37:49.736Z,96.32
2023-01-13T01:38:49.730Z,96.12
2023-01-13T01:39:49.727Z,95.91
2023-01-13T01:40:49.702Z,96.01
2023-01-13T01:41:49.712Z,96.12
2023-01-13T01:42:49.679Z,96.01
2023-01-13T01:43:49.666Z,96.01
2023-01-13T01:44:50.705Z,95.70
2023-01-13T01:45:49.643Z,95.70
2023-01-13T01:46:49.659Z,95.81
2023-01-13T01:47:49.632Z,95.91
2023-01-13T01:48:49.598Z,95.70
2023-01-13T01:49:49.587Z,95.50
2023-01-13T01:50:49.569Z,95.61
2023-01-13T01:51:49.563Z,95.61
2023-01-13T01:52:49.536Z,95.61
2023-01-13T01:53:49.554Z,95.40
2023-01-13T01:54:49.534Z,95.61
2023-01-13T01:55:49.508Z,95.50
2023-01-13T01:56:49.502Z,95.40
2023-01-13T01:57:49.485Z,95.50
2023-01-13T01:58:49.478Z,95.09
2023-01-13T01:59:49.444Z,94.99
2023-01-13T02:00:49.455Z,95.29
2023-01-13T02:01:49.521Z,95.20
2023-01-13T02:02:49.435Z,95.09
2023-01-13T02:03:49.407Z,94.78
2023-01-13T02:04:49.377Z,94.99
2023-01-13T02:05:49.380Z,94.78
2023-01-13T02:06:49.370Z,94.78
2023-01-13T02:07:49.355Z,94.68
2023-01-13T02:08:49.359Z,94.68
2023-01-13T02:09:49.336Z,94.78
2023-01-13T02:10:49.321Z,94.78
2023-01-13T02:11:49.307Z,94.48
2023-01-13T02:12:49.298Z,94.37
2023-01-13T02:13:49.265Z,94.37
2023-01-13T02:14:49.249Z,94.27
2023-01-13T02:15:49.248Z,94.27
2023-01-13T02:16:49.229Z,93.92
2023-01-13T02:17:49.223Z,93.62
2023-01-13T02:18:49.217Z,93.41
2023-01-13T02:19:49.193Z,93.30
2023-01-13T02:20:49.174Z,93.41
2023-01-13T02:21:49.201Z,93.30
2023-01-13T02:22:49.160Z,93.30
2023-01-13T02:23:49.148Z,93.30
2023-01-13T02:24:49.143Z,93.30
2023-01-13T02:25:49.129Z,93.20
2023-01-13T02:26:49.099Z,93.00
2023-01-13T02:27:49.109Z,93.00
2023-01-13T02:28:49.080Z,93.00
2023-01-13T02:29:49.059Z,93.10
2023-01-13T02:30:49.059Z,93.10
2023-01-13T02:31:49.095Z,93.00
2023-01-13T02:32:49.027Z,92.90
2023-01-13T02:33:49.030Z,93.20
2023-01-13T02:34:48.999Z,93.00
2023-01-13T02:35:48.986Z,93.00
2023-01-13T02:36:48.970Z,92.79
2023-01-13T02:37:48.973Z,92.79
2023-01-13T02:38:48.950Z,92.59
2023-01-13T02:39:48.933Z,92.69
2023-01-13T02:40:48.933Z,92.49
2023-01-13T02:41:48.919Z,92.59
2023-01-13T02:42:48.911Z,92.59
2023-01-13T02:43:48.890Z,92.49
2023-01-13T02:44:48.875Z,92.59
2023-01-13T02:45:48.904Z,92.69
2023-01-13T02:46:48.843Z,92.49
2023-01-13T02:47:48.830Z,92.59
2023-01-13T02:48:48.838Z,92.79
2023-01-13T02:49:48.810Z,92.59
2023-01-13T02:50:48.806Z,92.59
2023-01-13T02:51:48.769Z,92.59
2023-01-13T02:52:48.791Z,92.59
2023-01-13T02:53:48.752Z,92.69
2023-01-13T02:54:48.751Z,92.69
2023-01-13T02:55:48.723Z,92.79
2023-01-13T02:56:48.712Z,92.90
2023-01-13T02:57:48.698Z,92.79
2023-01-13T02:58:48.730Z,93.00
2023-01-13T02:59:48.679Z,92.79
2023-01-13T03:00:48.672Z,92.79
2023-01-13T03:01:48.737Z,92.59
2023-01-13T03:02:48.643Z,92.69
2023-01-13T03:03:48.595Z,92.69
2023-01-13T03:04:48.637Z,92.79
2023-01-13T03:05:48.575Z,92.49
2023-01-13T03:06:48.557Z,92.59
2023-01-13T03:07:48.575Z,92.69
2023-01-13T03:08:48.519Z,92.90
2023-01-13T03:09:48.513Z,92.79
2023-01-13T03:10:48.485Z,92.90
2023-01-13T03:11:48.488Z,92.90
2023-01-13T03:12:48.469Z,92.79
2023-01-13T03:13:48.472Z,92.79
2023-01-13T03:14:48.435Z,92.79
2023-01-13T03:15:48.423Z,92.90
2023-01-13T03:16:48.450Z,92.69
2023-01-13T03:17:48.417Z,92.69
2023-01-13T03:18:48.395Z,92.59
2023-01-13T03:19:48.405Z,92.63
2023-01-13T03:20:48.398Z,92.59
2023-01-13T03:21:48.377Z,92.63
2023-01-13T03:22:48.336Z,92.63
2023-01-13T03:23:48.335Z,92.74
2023-01-13T03:24:48.326Z,92.74
2023-01-13T03:25:48.304Z,92.74
2023-01-13T03:26:48.280Z,92.83
2023-01-13T03:27:48.272Z,92.83
2023-01-13T03:28:48.247Z,92.83
2023-01-13T03:29:48.264Z,92.83
2023-01-13T03:30:48.347Z,92.83
2023-01-13T03:31:48.225Z,92.74
2023-01-13T03:32:48.194Z,92.83
2023-01-13T03:33:48.210Z,92.63
2023-01-13T03:34:48.209Z,92.53
2023-01-13T03:35:48.189Z,92.53
2023-01-13T03:36:48.157Z,92.53
2023-01-13T03:37:48.186Z,92.43
2023-01-13T03:38:48.130Z,92.43
2023-01-13T03:39:48.118Z,92.18
2023-01-13T03:40:48.162Z,92.08
2023-01-13T03:41:48.096Z,92.08
2023-01-13T03:42:48.144Z,91.97
2023-01-13T03:43:48.084Z,91.87
2023-01-13T03:44:48.049Z,91.77
2023-01-13T03:45:48.062Z,91.87
2023-01-13T03:46:48.028Z,91.77
2023-01-13T03:47:48.015Z,91.77
2023-01-13T03:48:48.032Z,91.87
2023-01-13T03:49:48.000Z,91.97
2023-01-13T03:50:47.974Z,91.77
2023-01-13T03:51:47.981Z,91.87
2023-01-13T03:52:47.946Z,91.87
2023-01-13T03:53:47.937Z,91.97
2023-01-13T03:54:47.918Z,91.97
2023-01-13T03:55:47.923Z,91.87
2023-01-13T03:56:47.902Z,91.77
2023-01-13T03:57:47.924Z,91.97
2023-01-13T03:58:47.882Z,91.91
2023-01-13T03:59:47.854Z,91.91
2023-01-13T04:00:47.837Z,92.12
2023-01-13T04:01:47.942Z,92.22
2023-01-13T04:02:47.812Z,92.12
2023-01-13T04:03:47.846Z,92.22
2023-01-13T04:04:47.798Z,92.12
2023-01-13T04:05:47.805Z,92.12
2023-01-13T04:06:47.759Z,92.22
2023-01-13T04:07:47.751Z,92.12
2023-01-13T04:08:47.724Z,92.22
2023-01-13T04:09:47.738Z,92.02
2023-01-13T04:10:47.718Z,92.02
2023-01-13T04:11:47.696Z,91.91
2023-01-13T04:12:47.716Z,91.46
2023-01-13T04:13:47.679Z,91.67
2023-01-13T04:14:47.668Z,91.71
2023-01-13T04:15:47.662Z,91.61
2023-01-13T04:16:47.649Z,91.46
2023-01-13T04:17:47.631Z,91.46
2023-01-13T04:18:47.607Z,91.56
2023-01-13T04:19:47.616Z,91.61
2023-01-13T04:20:47.598Z,91.50
2023-01-13T04:21:47.568Z,91.46
2023-01-13T04:22:47.574Z,91.46
2023-01-13T04:23:47.548Z,91.46
2023-01-13T04:24:47.528Z,91.46
2023-01-13T04:25:47.514Z,91.36
2023-01-13T04:26:47.512Z,91.46
2023-01-13T04:27:47.497Z,91.36
2023-01-13T04:28:47.486Z,91.26
2023-01-13T04:29:47.483Z,91.05
2023-01-13T04:30:47.479Z,91.05
2023-01-13T04:31:47.458Z,91.16
2023-01-13T04:32:47.421Z,91.26
2023-01-13T04:33:47.415Z,91.36
2023-01-13T04:34:47.401Z,91.36
2023-01-13T04:35:47.419Z,91.26
2023-01-13T04:36:54.408Z,91.26
2023-01-13T04:37:47.378Z,91.26
2023-01-13T04:38:47.354Z,91.26
2023-01-13T04:39:47.351Z,91.36
2023-01-13T04:40:48.166Z,91.40
2023-01-13T04:41:47.328Z,91.20
2023-01-13T04:42:47.331Z,91.26
2023-01-13T04:43:47.307Z,91.30
2023-01-13T04:44:47.301Z,91.30
2023-01-13T04:45:47.268Z,91.40
2023-01-13T04:46:47.257Z,91.40
2023-01-13T04:47:47.299Z,91.40
2023-01-13T04:48:47.257Z,91.50
2023-01-13T04:49:47.246Z,91.40
2023-01-13T04:50:47.195Z,91.40
2023-01-13T04:51:47.188Z,91.40
2023-01-13T04:52:47.193Z,91.61
2023-01-13T04:53:47.188Z,91.61
2023-01-13T04:54:47.161Z,91.82
2023-01-13T04:55:47.187Z,91.61
2023-01-13T04:56:47.134Z,91.71
2023-01-13T04:57:47.116Z,91.71
2023-01-13T04:58:47.095Z,91.82
2023-01-13T04:59:47.115Z,91.91
2023-01-13T05:00:47.093Z,91.96
2023-01-13T05:01:47.152Z,91.96
2023-01-13T05:02:47.049Z,92.16
2023-01-13T05:03:47.042Z,91.91
2023-01-13T05:04:47.074Z,91.82
2023-01-13T05:05:47.017Z,91.71
2023-01-13T05:06:47.050Z,91.96
2023-01-13T05:07:47.016Z,92.06
2023-01-13T05:08:46.959Z,92.06
2023-01-13T05:09:46.960Z,92.06
2023-01-13T05:10:46.942Z,92.06
2023-01-13T05:11:46.955Z,91.86
2023-01-13T05:12:46.907Z,91.96
2023-01-13T05:13:46.908Z,92.06
2023-01-13T05:14:46.893Z,91.86
2023-01-13T05:15:46.910Z,91.82
2023-01-13T05:16:46.858Z,91.71
2023-01-13T05:17:46.871Z,91.71
2023-01-13T05:18:46.853Z,91.82
2023-01-13T05:19:46.860Z,91.82
2023-01-13T05:20:46.822Z,91.91
2023-01-13T05:21:46.808Z,91.91
2023-01-13T05:22:46.783Z,91.50
2023-01-13T05:23:46.831Z,91.50
2023-01-13T05:24:46.778Z,91.40
2023-01-13T05:25:46.763Z,91.09
2023-01-13T05:26:46.731Z,91.09
2023-01-13T05:27:46.727Z,90.99
2023-01-13T05:28:46.739Z,90.84
2023-01-13T05:29:46.849Z,90.84
2023-01-13T05:30:46.757Z,91.09
2023-01-13T05:31:46.675Z,91.20
2023-01-13T05:32:46.653Z,91.40
2023-01-13T05:33:46.648Z,91.61
2023-01-13T05:34:46.626Z,92.22
2023-01-13T05:35:46.627Z,92.74
2023-01-13T05:36:46.635Z,93.15
2023-01-13T05:37:46.615Z,93.66
2023-01-13T05:38:46.594Z,94.07
2023-01-13T05:39:46.571Z,94.07
2023-01-13T05:40:46.580Z,94.37
2023-01-13T05:41:46.551Z,94.48
2023-01-13T05:42:46.611Z,94.37
2023-01-13T05:43:46.546Z,94.52
2023-01-13T05:44:46.499Z,94.62
2023-01-13T05:45:46.514Z,94.62
2023-01-13T05:46:46.566Z,94.62
2023-01-13T05:47:46.478Z,94.32
2023-01-13T05:48:46.449Z,93.96
2023-01-13T05:49:46.437Z,93.86
2023-01-13T05:50:46.411Z,93.66
2023-01-13T05:51:46.414Z,93.45
2023-01-13T05:52:46.418Z,93.04
2023-01-13T05:53:46.381Z,93.25
2023-01-13T05:54:46.380Z,92.83
2023-01-13T05:55:46.370Z,92.74
2023-01-13T05:56:46.345Z,92.74
2023-01-13T05:57:46.402Z,92.83
2023-01-13T05:58:46.331Z,92.74
2023-01-13T05:59:46.356Z,92.63
2023-01-13T06:00:46.289Z,92.53
2023-01-13T06:01:46.316Z,92.63
2023-01-13T06:02:46.282Z,92.53
2023-01-13T06:03:46.249Z,92.32
2023-01-13T06:04:46.355Z,92.12
2023-01-13T06:05:46.232Z,92.12
2023-01-13T06:06:46.261Z,92.12
2023-01-13T06:07:46.229Z,91.82
2023-01-13T06:08:46.193Z,91.82
2023-01-13T06:09:46.184Z,91.82
2023-01-13T06:10:46.191Z,91.71
2023-01-13T06:11:46.147Z,91.61
2023-01-13T06:12:46.134Z,91.71
2023-01-13T06:13:46.127Z,91.50
2023-01-13T06:14:46.100Z,91.61
2023-01-13T06:15:46.128Z,91.36
2023-01-13T06:16:46.095Z,91.26
2023-01-13T06:17:46.072Z,91.36
2023-01-13T06:18:46.065Z,91.30
2023-01-13T06:19:46.449Z,91.26
2023-01-13T06:20:46.032Z,91.50
2023-01-13T06:21:46.065Z,91.30
2023-01-13T06:22:46.183Z,91.30
2023-01-13T06:23:45.997Z,91.61
2023-01-13T06:24:46.017Z,91.50
2023-01-13T06:25:46.003Z,91.71
2023-01-13T06:26:45.953Z,91.50
2023-01-13T06:27:45.965Z,91.61
2023-01-13T06:28:45.938Z,91.71
2023-01-13T06:29:45.915Z,91.61
2023-01-13T06:30:45.888Z,91.61
2023-01-13T06:31:45.976Z,91.61
2023-01-13T06:32:45.869Z,91.61
2023-01-13T06:33:45.892Z,91.61
2023-01-13T06:34:45.852Z,91.71
2023-01-13T06:35:45.833Z,91.82
2023-01-13T06:36:45.825Z,91.91
2023-01-13T06:37:45.805Z,92.02
2023-01-13T06:38:45.794Z,92.12
2023-01-13T06:39:45.815Z,92.02
2023-01-13T06:40:45.778Z,92.12
2023-01-13T06:41:45.764Z,92.12
2023-01-13T06:42:45.740Z,92.22
2023-01-13T06:43:45.721Z,92.32
2023-01-13T06:44:45.740Z,92.43
2023-01-13T06:45:45.707Z,92.43
2023-01-13T06:46:45.726Z,92.43
2023-01-13T06:47:45.782Z,92.53
2023-01-13T06:48:45.652Z,92.63
2023-01-13T06:49:45.662Z,92.53
2023-01-13T06:50:45.628Z,92.53
2023-01-13T06:51:45.654Z,92.74
2023-01-13T06:52:45.612Z,93.04
2023-01-13T06:53:45.632Z,92.83
2023-01-13T06:54:45.573Z,92.63
2023-01-13T06:55:45.640Z,92.74
2023-01-13T06:56:45.575Z,92.53
2023-01-13T06:57:45.554Z,92.32
2023-01-13T06:58:45.524Z,92.32
2023-01-13T06:59:45.540Z,92.32
2023-01-13T07:00:45.497Z,92.32
2023-01-13T07:01:45.666Z,92.12
2023-01-13T07:02:45.528Z,92.12
2023-01-13T07:03:45.461Z,92.18
2023-01-13T07:04:45.441Z,92.28
2023-01-13T07:05:45.433Z,92.28
2023-01-13T07:06:45.435Z,92.38
2023-01-13T07:07:45.443Z,92.49
2023-01-13T07:08:45.394Z,92.49
2023-01-13T07:09:45.385Z,92.38
2023-01-13T07:10:45.367Z,92.38
2023-01-13T07:11:45.371Z,92.49
2023-01-13T07:12:45.357Z,92.49
2023-01-13T07:13:45.348Z,92.38
2023-01-13T07:14:45.381Z,92.18
2023-01-13T07:15:45.292Z,92.38
2023-01-13T07:16:45.330Z,92.28
2023-01-13T07:17:45.294Z,92.28
2023-01-13T07:18:45.273Z,92.28
2023-01-13T07:19:45.253Z,92.38
2023-01-13T07:20:45.383Z,92.18
2023-01-13T07:21:45.223Z,92.18
2023-01-13T07:22:45.213Z,92.18
2023-01-13T07:23:45.194Z,92.18
2023-01-13T07:24:45.195Z,92.69
2023-01-13T07:25:45.185Z,92.18
2023-01-13T07:26:45.188Z,92.28
2023-01-13T07:27:45.145Z,92.38
2023-01-13T07:28:45.152Z,92.38
2023-01-13T07:29:45.118Z,92.08
2023-01-13T07:30:45.123Z,92.18
2023-01-13T07:31:45.121Z,91.97
2023-01-13T07:32:45.112Z,91.97
2023-01-13T07:33:45.062Z,91.77
2023-01-13T07:34:45.066Z,91.97
2023-01-13T07:35:45.033Z,92.08
2023-01-13T07:36:45.034Z,92.08
2023-01-13T07:37:45.013Z,92.49
2023-01-13T07:38:45.049Z,91.77
2023-01-13T07:39:44.997Z,92.08
2023-01-13T07:40:44.983Z,91.67
2023-01-13T07:41:44.952Z,91.67
2023-01-13T07:42:44.955Z,90.64
2023-01-13T07:43:44.934Z,90.75
2023-01-13T07:44:44.954Z,90.64
2023-01-13T07:45:44.942Z,90.64
2023-01-13T07:46:44.916Z,90.03
2023-01-13T07:47:44.875Z,89.31
2023-01-13T07:48:44.899Z,89.11
2023-01-13T07:49:44.863Z,88.70
2023-01-13T07:50:44.838Z,88.49
2023-01-13T07:51:44.817Z,88.29
2023-01-13T07:52:44.826Z,88.18
2023-01-13T07:53:44.793Z,88.59
2023-01-13T07:54:44.786Z,88.49
2023-01-13T07:55:44.817Z,88.29
2023-01-13T07:56:44.782Z,88.39
2023-01-13T07:57:44.769Z,88.49
2023-01-13T07:58:44.754Z,88.08
2023-01-13T07:59:44.739Z,88.18
2023-01-13T08:00:44.745Z,87.77
2023-01-13T08:01:44.801Z,87.26
2023-01-13T08:02:44.745Z,87.67
2023-01-13T08:03:44.665Z,87.47
2023-01-13T08:04:44.660Z,87.57
2023-01-13T08:05:44.661Z,87.37
2023-01-13T08:06:44.637Z,86.65
2023-01-13T08:07:44.630Z,86.44
2023-01-13T08:08:44.616Z,86.44
2023-01-13T08:09:44.583Z,86.55
2023-01-13T08:10:44.584Z,86.14
2023-01-13T08:11:44.567Z,86.04
2023-01-13T08:12:52.350Z,85.93
2023-01-13T08:13:45.554Z,85.93
2023-01-13T08:14:44.583Z,85.63
2023-01-13T08:15:44.508Z,85.52
2023-01-13T08:16:44.605Z,85.42
2023-01-13T08:17:44.498Z,85.11
2023-01-13T08:18:44.489Z,85.01
2023-01-13T08:19:44.479Z,85.22
2023-01-13T08:20:44.466Z,85.52
2023-01-13T08:21:44.439Z,85.63
2023-01-13T08:22:44.443Z,85.42
2023-01-13T08:23:44.433Z,85.42
2023-01-13T08:24:44.416Z,85.31
2023-01-13T08:25:44.389Z,85.31
2023-01-13T08:26:44.378Z,85.63
2023-01-13T08:27:44.350Z,85.72
2023-01-13T08:28:44.353Z,85.63
2023-01-13T08:29:44.347Z,85.52
2023-01-13T08:30:44.427Z,85.63
2023-01-13T08:31:44.301Z,85.87
2023-01-13T08:32:44.336Z,86.04
2023-01-13T08:33:44.268Z,86.18
2023-01-13T08:34:44.343Z,86.28
2023-01-13T08:35:44.271Z,86.28
2023-01-13T08:36:44.335Z,86.48
2023-01-13T08:37:44.220Z,86.58
2023-01-13T08:38:44.206Z,86.69
2023-01-13T08:39:44.195Z,86.69
2023-01-13T08:40:44.191Z,86.99
2023-01-13T08:41:44.201Z,87.10
2023-01-13T08:42:44.187Z,87.30
2023-01-13T08:43:44.145Z,87.61
2023-01-13T08:44:44.146Z,87.92
2023-01-13T08:45:44.175Z,88.12
2023-01-13T08:46:44.109Z,88.12
2023-01-13T08:47:44.097Z,88.23
2023-01-13T08:48:44.093Z,88.23
2023-01-13T08:49:44.060Z,88.53
2023-01-13T08:50:44.052Z,88.74
2023-01-13T08:51:44.059Z,88.84
2023-01-13T08:52:44.049Z,89.15
2023-01-13T08:53:44.040Z,89.45
2023-01-13T08:54:44.036Z,89.36
2023-01-13T08:55:43.991Z,89.45
2023-01-13T08:56:44.037Z,89.56
2023-01-13T08:57:43.971Z,89.25
2023-01-13T08:58:44.004Z,89.56
2023-01-13T08:59:43.960Z,89.36
2023-01-13T09:00:43.918Z,89.15
2023-01-13T09:01:43.978Z,89.25
2023-01-13T09:02:43.924Z,89.25
2023-01-13T09:03:43.880Z,89.56
2023-01-13T09:04:43.952Z,89.56
2023-01-13T09:05:43.857Z,89.25
2023-01-13T09:06:43.850Z,89.15
2023-01-13T09:07:43.861Z,89.45
2023-01-13T09:08:43.841Z,89.56
2023-01-13T09:09:43.806Z,89.56
2023-01-13T09:10:43.820Z,89.36
2023-01-13T09:11:43.789Z,89.36
2023-01-13T09:12:43.794Z,89.25
2023-01-13T09:13:43.771Z,88.94
2023-01-13T09:14:43.759Z,89.25
2023-01-13T09:15:43.889Z,89.36
2023-01-13T09:16:43.740Z,89.25
2023-01-13T09:17:43.686Z,88.94
2023-01-13T09:18:43.686Z,89.15
2023-01-13T09:19:43.701Z,89.15
2023-01-13T09:20:43.739Z,89.15
2023-01-13T09:21:43.693Z,89.15
2023-01-13T09:22:43.660Z,89.15
2023-01-13T09:23:43.617Z,89.25
2023-01-13T09:24:43.615Z,89.56
2023-01-13T09:25:43.602Z,89.87
2023-01-13T09:26:43.596Z,89.87
2023-01-13T09:27:43.577Z,89.97
2023-01-13T09:28:43.549Z,89.76
2023-01-13T09:29:43.647Z,89.76
2023-01-13T09:30:43.615Z,89.76
2023-01-13T09:31:44.379Z,90.07
2023-01-13T09:32:43.532Z,89.97
2023-01-13T09:33:43.493Z,90.07
2023-01-13T09:34:43.553Z,90.07
2023-01-13T09:35:43.477Z,90.17
2023-01-13T09:36:43.504Z,90.28
2023-01-13T09:37:43.455Z,90.17
2023-01-13T09:38:43.441Z,89.97
2023-01-13T09:39:43.408Z,89.97
2023-01-13T09:40:43.407Z,90.01
2023-01-13T09:41:43.395Z,90.32
2023-01-13T09:42:43.427Z,90.11
2023-01-13T09:43:43.384Z,90.22
2023-01-13T09:44:43.354Z,90.17
2023-01-13T09:45:43.335Z,90.07
2023-01-13T09:46:43.450Z,90.22
2023-01-13T09:47:43.353Z,90.22
2023-01-13T09:48:43.311Z,90.11
2023-01-13T09:49:43.303Z,90.22
2023-01-13T09:50:43.306Z,90.42
2023-01-13T09:51:43.376Z,90.22
2023-01-13T09:52:43.249Z,90.22
2023-01-13T09:53:43.222Z,90.11
2023-01-13T09:54:43.275Z,90.01
2023-01-13T09:55:43.211Z,90.11
2023-01-13T09:56:43.251Z,90.22
2023-01-13T09:57:43.172Z,90.32
2023-01-13T09:58:43.161Z,90.22
2023-01-13T09:59:43.216Z,90.11
2023-01-13T10:00:43.178Z,89.90
2023-01-13T10:01:43.155Z,90.01
2023-01-13T10:02:43.129Z,90.22
2023-01-13T10:03:43.105Z,90.46
2023-01-13T10:04:43.149Z,90.56
2023-01-13T10:05:43.072Z,90.87
2023-01-13T10:06:43.096Z,90.67
2023-01-13T10:07:43.063Z,90.87
2023-01-13T10:08:43.034Z,90.87
2023-01-13T10:09:43.023Z,90.87
2023-01-13T10:10:43.035Z,90.67
2023-01-13T10:11:43.000Z,90.97
2023-01-13T10:12:43.004Z,90.77
2023-01-13T10:13:42.982Z,90.56
2023-01-13T10:14:42.960Z,90.67
2023-01-13T10:15:42.961Z,90.77
2023-01-13T10:16:42.936Z,90.97
2023-01-13T10:17:42.940Z,90.97
2023-01-13T10:18:42.909Z,91.02
2023-01-13T10:19:42.902Z,90.91
2023-01-13T10:20:42.889Z,91.02
2023-01-13T10:21:42.936Z,91.02
2023-01-13T10:22:42.855Z,91.02
2023-01-13T10:23:42.826Z,90.91
2023-01-13T10:24:42.831Z,90.81
2023-01-13T10:25:42.868Z,90.71
2023-01-13T10:26:42.797Z,90.71
2023-01-13T10:27:42.784Z,90.81
2023-01-13T10:28:42.803Z,90.81
2023-01-13T10:29:42.873Z,90.61
2023-01-13T10:30:42.776Z,90.40
2023-01-13T10:31:42.744Z,90.40
2023-01-13T10:32:42.747Z,90.20
2023-01-13T10:33:42.712Z,89.84
2023-01-13T10:34:42.704Z,89.58
2023-01-13T10:35:42.682Z,89.48
2023-01-13T10:36:42.662Z,89.37
2023-01-13T10:37:49.683Z,89.37
2023-01-13T10:38:42.667Z,89.17
2023-01-13T10:39:42.619Z,89.27
2023-01-13T10:40:49.011Z,88.92
2023-01-13T10:41:42.609Z,88.92
2023-01-13T10:42:42.603Z,88.31
2023-01-13T10:43:42.654Z,88.00
2023-01-13T10:44:42.562Z,87.79
2023-01-13T10:45:42.552Z,87.70
2023-01-13T10:46:42.610Z,87.70
2023-01-13T10:47:42.606Z,87.70
2023-01-13T10:48:42.514Z,87.18
2023-01-13T10:49:43.161Z,87.18
2023-01-13T10:50:42.481Z,87.18
2023-01-13T10:51:42.533Z,87.38
2023-01-13T10:52:42.451Z,86.66
2023-01-13T10:53:42.432Z,86.36
2023-01-13T10:54:42.429Z,86.46
2023-01-13T10:55:42.418Z,86.36
2023-01-13T10:56:42.497Z,86.05
2023-01-13T10:57:42.423Z,85.85
2023-01-13T10:58:42.398Z,85.74
2023-01-13T10:59:42.377Z,85.74
2023-01-13T11:00:42.414Z,85.71
2023-01-13T11:01:42.529Z,85.91
2023-01-13T11:02:42.421Z,85.50
2023-01-13T11:03:42.313Z,85.39
2023-01-13T11:04:42.326Z,85.50
2023-01-13T11:05:42.275Z,84.88
2023-01-13T11:06:42.273Z,84.88
2023-01-13T11:07:42.276Z,84.78
2023-01-13T11:08:42.278Z,84.88
2023-01-13T11:09:42.233Z,84.61
2023-01-13T11:10:42.223Z,84.52
2023-01-13T11:11:42.221Z,84.58
2023-01-13T11:12:42.205Z,84.99
2023-01-13T11:13:42.193Z,84.47
2023-01-13T11:14:42.184Z,84.12
2023-01-13T11:15:42.341Z,83.92
2023-01-13T11:16:52.763Z,83.41
2023-01-13T11:17:43.142Z,83.00
2023-01-13T11:18:42.124Z,82.90
2023-01-13T11:19:42.116Z,83.20
2023-01-13T11:20:42.095Z,83.31
2023-01-13T11:21:42.082Z,83.10
2023-01-13T11:22:42.065Z,83.20
2023-01-13T11:23:42.034Z,83.41
2023-01-13T11:24:42.047Z,83.31
2023-01-13T11:25:42.032Z,83.72
2023-01-13T11:26:42.007Z,83.10
2023-01-13T11:27:42.025Z,83.31
2023-01-13T11:28:41.974Z,82.90
2023-01-13T11:29:41.971Z,82.79
2023-01-13T11:30:41.943Z,83.31
2023-01-13T11:31:42.039Z,82.90
2023-01-13T11:32:41.923Z,82.39
2023-01-13T11:33:41.937Z,82.28
2023-01-13T11:34:41.913Z,81.77
2023-01-13T11:35:41.906Z,82.18
2023-01-13T11:36:41.917Z,81.98
2023-01-13T11:37:41.875Z,82.08
2023-01-13T11:38:41.854Z,81.94
2023-01-13T11:39:41.897Z,81.94
2023-01-13T11:40:41.840Z,81.67
2023-01-13T11:41:41.831Z,81.32
2023-01-13T11:42:41.817Z,81.43
2023-01-13T11:43:41.805Z,81.01
2023-01-13T11:44:41.783Z,81.12
2023-01-13T11:45:41.774Z,80.71
2023-01-13T11:46:41.798Z,80.40
2023-01-13T11:47:41.788Z,80.40
2023-01-13T11:48:41.735Z,80.40
2023-01-13T11:49:41.714Z,80.30
2023-01-13T11:50:41.689Z,80.09
2023-01-13T11:51:41.682Z,80.09
2023-01-13T11:52:41.705Z,80.40
2023-01-13T11:53:41.659Z,80.40
2023-01-13T11:54:41.657Z,80.46
2023-01-13T11:55:41.636Z,80.46
2023-01-13T11:56:41.627Z,79.64
2023-01-13T11:57:41.630Z,79.38
2023-01-13T11:58:50.201Z,79.58
2023-01-13T11:59:42.584Z,79.89
2023-01-13T12:00:41.556Z,79.85
2023-01-13T12:01:41.578Z,79.48
2023-01-13T12:02:41.535Z,79.85
2023-01-13T12:03:41.545Z,79.54
2023-01-13T12:04:41.509Z,78.93
2023-01-13T12:05:41.505Z,79.03
2023-01-13T12:06:41.478Z,78.83
2023-01-13T12:07:41.479Z,79.03
2023-01-13T12:08:41.458Z,78.52
2023-01-13T12:09:41.476Z,77.91
2023-01-13T12:10:41.435Z,77.50
2023-01-13T12:11:41.428Z,78.11
2023-01-13T12:12:41.456Z,78.63
2023-01-13T12:13:41.421Z,78.42
2023-01-13T12:14:41.376Z,78.63
2023-01-13T12:15:41.397Z,77.91
2023-01-13T12:16:41.428Z,77.80
2023-01-13T12:17:41.350Z,77.97
2023-01-13T12:18:41.326Z,77.36
2023-01-13T12:19:41.378Z,77.05
2023-01-13T12:20:41.295Z,77.15
2023-01-13T12:21:41.285Z,77.05
2023-01-13T12:22:41.305Z,76.23
2023-01-13T12:23:41.347Z,76.75
2023-01-13T12:24:41.526Z,76.57
2023-01-13T12:25:41.250Z,76.57
2023-01-13T12:26:41.333Z,76.75
2023-01-13T12:27:41.404Z,76.75
2023-01-13T12:28:41.377Z,76.54
2023-01-13T12:29:41.307Z,76.54
2023-01-13T12:30:41.222Z,76.34
2023-01-13T12:31:41.183Z,76.03
2023-01-13T12:32:41.149Z,76.23
2023-01-13T12:33:41.150Z,76.43
2023-01-13T12:34:41.124Z,75.52
2023-01-13T12:35:41.116Z,75.72
2023-01-13T12:36:41.402Z,75.62
2023-01-13T12:37:41.128Z,75.72
2023-01-13T12:38:41.079Z,75.72
2023-01-13T12:39:41.058Z,75.82
2023-01-13T12:40:41.047Z,75.21
2023-01-13T12:41:41.054Z,75.82
2023-01-13T12:42:41.005Z,75.42
2023-01-13T12:43:41.009Z,76.03
2023-01-13T12:44:40.986Z,75.68
2023-01-13T12:45:41.027Z,74.69
2023-01-13T12:46:40.947Z,74.80
2023-01-13T12:47:40.966Z,74.69
2023-01-13T12:48:40.928Z,75.21
2023-01-13T12:49:40.943Z,74.80
2023-01-13T12:50:40.958Z,74.69
2023-01-13T12:51:40.899Z,74.80
2023-01-13T12:52:40.880Z,75.31